Time;durP1;ratioP1;P1;durP2;ratioP2;P2;SDS_P1;SDS_P2;PMS_P1;PMS_P2;Temp;Humidity;BMP_temperature;BMP_pressure;BME280_temperature;BME280_humidity;BME280_pressure;Samples;Min_cycle;Max_cycle;Signal;HPM_P1;HPM_P2
2022/04/22 00:00:08;;;;;;;5.07;3.08;;;11.70;99.90;;;11.84;67.31;100159.63;5147584;28;20058;-70
2022/04/22 00:02:40;;;;;;;6.38;2.83;;;11.70;99.90;;;11.81;67.49;100154.38;5147318;28;20537;-71
2022/04/22 00:05:12;;;;;;;5.72;2.78;;;11.70;99.90;;;11.78;67.58;100157.75;5147210;28;20055;-69
2022/04/22 00:07:44;;;;;;;7.15;3.13;;;11.60;99.90;;;11.77;67.45;100157.72;5147697;28;20047;-70
2022/04/22 00:10:17;;;;;;;5.22;2.78;;;11.60;99.90;;;11.76;67.66;100148.13;5147279;28;20054;-70
2022/04/22 00:12:49;;;;;;;4.47;2.67;;;11.60;99.90;;;11.71;67.74;100145.41;5147194;28;20512;-71
2022/04/22 00:15:22;;;;;;;5.82;3.00;;;11.60;99.90;;;11.66;68.06;100142.72;5147394;28;20057;-69
2022/04/22 00:17:54;;;;;;;7.43;3.00;;;11.50;99.90;;;11.61;68.38;100141.75;5147126;28;20117;-70
2022/04/22 00:20:26;;;;;;;5.55;2.88;;;11.50;99.90;;;11.56;68.75;100143.38;5147055;28;20492;-70
2022/04/22 00:22:58;;;;;;;6.13;3.20;;;11.40;99.90;;;11.50;69.06;100140.66;5146459;28;20055;-70
2022/04/22 00:25:30;;;;;;;6.38;2.88;;;11.40;99.90;;;11.45;69.50;100139.66;5146757;28;20137;-70
2022/04/22 00:28:03;;;;;;;6.07;3.05;;;11.30;99.90;;;11.40;70.01;100133.47;5146922;28;20043;-70
2022/04/22 00:30:36;;;;;;;7.43;3.63;;;11.30;99.90;;;11.38;70.16;100132.56;5147012;28;20058;-70
2022/04/22 00:33:08;;;;;;;5.97;2.80;;;11.20;99.90;;;11.35;70.44;100138.59;5146779;28;20047;-70
2022/04/22 00:35:40;;;;;;;6.03;3.58;;;11.20;99.90;;;11.31;70.42;100144.59;5147202;28;20407;-71
2022/04/22 00:38:12;;;;;;;7.75;3.20;;;11.10;99.90;;;11.25;70.43;100138.38;5146742;28;20073;-70
2022/04/22 00:40:44;;;;;;;6.55;3.25;;;11.10;99.90;;;11.22;70.73;100143.53;5146868;28;20043;-70
2022/04/22 00:43:18;;;;;;;6.45;3.25;;;11.10;99.90;;;11.14;70.63;100133.78;5146612;28;20055;-71
2022/04/22 00:45:53;;;;;;;7.15;3.28;;;11.00;99.90;;;11.09;70.98;100134.56;5146540;28;20055;-70
2022/04/22 00:48:25;;;;;;;6.20;2.92;;;11.00;99.90;;;11.05;71.19;100137.94;5146627;28;20042;-71
2022/04/22 00:50:57;;;;;;;7.22;3.13;;;11.00;99.90;;;11.00;71.32;100123.91;5146496;28;20057;-70
2022/04/22 00:53:30;;;;;;;5.95;3.55;;;10.90;99.90;;;10.97;71.38;100123.84;5146250;28;20476;-70
2022/04/22 00:56:04;;;;;;;6.63;3.00;;;10.80;99.90;;;10.91;71.62;100121.97;5146346;28;20050;-70
2022/04/22 00:58:39;;;;;;;6.53;3.40;;;10.80;99.90;;;10.86;72.16;100128.81;5146591;28;20051;-70
2022/04/22 01:01:13;;;;;;;5.45;3.25;;;10.80;99.90;;;10.80;72.12;100120.84;5146047;28;20366;-70
2022/04/22 01:12:14;;;;;;;6.28;2.97;;;10.60;99.90;;;10.63;73.04;100125.69;5145993;28;20097;-71
2022/04/22 01:14:47;;;;;;;5.05;3.40;;;10.50;99.90;;;10.59;73.28;100122.09;5145914;28;20057;-69
2022/04/22 01:17:21;;;;;;;6.20;3.78;;;10.50;99.90;;;10.56;73.29;100124.66;5146197;28;20400;-70
2022/04/22 01:19:53;;;;;;;6.20;2.75;;;10.40;99.90;;;10.51;73.57;100115.84;5145690;28;20057;-70
2022/04/22 01:22:27;;;;;;;6.30;3.30;;;10.40;99.90;;;10.47;73.55;100114.00;5145714;28;20051;-70
2022/04/22 01:25:01;;;;;;;6.90;3.05;;;10.40;99.90;;;10.43;73.58;100117.38;5145763;28;20054;-70
2022/04/22 01:27:35;;;;;;;6.53;3.13;;;10.30;99.90;;;10.37;73.54;100106.81;5145798;28;20042;-70
2022/04/22 01:30:08;;;;;;;7.70;3.50;;;10.30;99.90;;;10.35;73.84;100102.38;5145640;28;20053;-70
2022/04/22 01:32:41;;;;;;;5.65;3.20;;;10.20;99.90;;;10.30;74.05;100094.44;5145320;28;20055;-70
2022/04/22 01:35:13;;;;;;;6.25;3.38;;;10.20;99.90;;;10.26;74.01;100093.50;5145869;28;20050;-70
2022/04/22 01:37:46;;;;;;;6.43;3.28;;;10.20;99.90;;;10.22;74.01;100088.13;5145406;28;20054;-70
2022/04/22 01:40:19;;;;;;;6.70;3.90;;;10.20;99.90;;;10.18;74.17;100091.53;5145561;28;20407;-69
2022/04/22 01:42:51;;;;;;;6.72;3.13;;;10.10;99.90;;;10.13;74.18;100090.53;5145768;28;20051;-70
2022/04/22 01:45:23;;;;;;;6.32;2.97;;;10.10;99.90;;;10.10;74.16;100095.63;5145643;28;20321;-70
2022/04/22 01:47:55;;;;;;;5.97;3.08;;;10.00;99.90;;;10.04;74.36;100086.84;5145709;28;20047;-70
2022/04/22 01:50:27;;;;;;;7.22;3.35;;;10.00;99.90;;;10.01;74.33;100091.97;5144980;28;20137;-70
2022/04/22 01:53:01;;;;;;;5.80;3.17;;;9.90;99.90;;;9.96;74.66;100088.34;5145056;28;20272;-70
2022/04/22 01:55:33;;;;;;;6.75;3.15;;;9.90;99.90;;;9.92;74.68;100096.94;5145314;28;20057;-69
2022/04/22 01:58:05;;;;;;;6.57;3.20;;;9.90;99.90;;;9.88;74.97;100100.31;5144771;28;20066;-72
2022/04/22 02:00:37;;;;;;;7.60;3.30;;;9.80;99.90;;;9.83;75.02;100106.22;5145175;28;20050;-70
2022/04/22 02:03:09;;;;;;;7.78;3.85;;;9.80;99.90;;;9.77;75.06;100102.59;5145218;28;20407;-70
2022/04/22 02:05:41;;;;;;;9.85;3.88;;;9.80;99.90;;;9.74;75.42;100102.53;5145182;28;20050;-70
2022/04/22 02:08:15;;;;;;;8.27;4.07;;;9.70;99.90;;;9.69;75.57;100104.13;5145336;28;20053;-70
2022/04/22 02:10:47;;;;;;;5.78;3.25;;;9.60;99.90;;;9.65;75.74;100090.97;5145186;28;20415;-70
2022/04/22 02:13:21;;;;;;;6.28;3.42;;;9.60;99.90;;;9.60;75.78;100087.41;5144504;28;20105;-70
2022/04/22 02:15:53;;;;;;;5.60;3.33;;;9.60;99.90;;;9.58;75.79;100083.84;5145227;28;20090;-70
2022/04/22 02:18:25;;;;;;;6.78;3.30;;;9.50;99.90;;;9.52;76.14;100088.06;5145010;28;20051;-69
2022/04/22 02:20:57;;;;;;;8.15;3.50;;;9.50;99.90;;;9.50;76.28;100092.31;5145045;28;20069;-69
2022/04/22 02:23:30;;;;;;;6.88;3.22;;;9.50;99.90;;;9.48;76.22;100088.81;5144657;28;20117;-70
2022/04/22 02:26:04;;;;;;;9.18;3.45;;;9.40;99.90;;;9.45;76.47;100088.75;5144672;28;20050;-70
2022/04/22 02:28:35;;;;;;;7.00;3.10;;;9.40;99.90;;;9.41;76.46;100086.88;5144949;28;20051;-70
2022/04/22 02:31:09;;;;;;;7.63;3.33;;;9.40;99.90;;;9.39;76.81;100083.38;5144535;28;20054;-70
2022/04/22 02:33:42;;;;;;;7.60;3.35;;;9.30;99.90;;;9.35;76.87;100091.91;5144664;28;20054;-69
2022/04/22 02:36:15;;;;;;;5.93;3.22;;;9.30;99.90;;;9.31;76.96;100092.66;5144886;28;20050;-70
2022/04/22 02:38:48;;;;;;;7.53;3.50;;;9.30;99.90;;;9.27;76.93;100088.22;5144501;28;20097;-70
2022/04/22 02:47:00;;;;;;;6.28;3.40;;;9.20;99.90;;;9.18;77.11;100077.53;5144652;28;20141;-70
2022/04/22 02:49:32;;;;;;;7.47;3.75;;;9.20;99.90;;;9.16;77.23;100079.22;5144658;28;20052;-69
2022/04/22 02:52:04;;;;;;;7.28;3.33;;;9.10;99.90;;;9.12;77.26;100073.03;5143743;28;20057;-70
2022/04/22 02:54:38;;;;;;;7.03;3.55;;;9.10;99.90;;;9.08;77.30;100071.19;5144610;28;20054;-70
2022/04/22 02:57:10;;;;;;;8.00;3.60;;;9.00;99.90;;;9.06;77.57;100069.38;5144379;28;20050;-69
2022/04/22 02:59:44;;;;;;;6.78;3.45;;;9.00;99.90;;;9.04;77.87;100069.34;5144039;28;20056;-70
2022/04/22 03:02:16;;;;;;;5.50;3.15;;;9.00;99.90;;;9.00;77.61;100063.97;5144165;28;20047;-69
2022/04/22 03:04:48;;;;;;;7.45;3.67;;;9.00;99.90;;;8.98;78.04;100062.22;5144255;28;20061;-73
2022/04/22 03:07:20;;;;;;;8.13;3.58;;;9.00;99.90;;;8.93;78.12;100069.03;5143999;28;20053;-69
2022/04/22 03:09:54;;;;;;;9.93;4.10;;;8.90;99.90;;;8.93;78.57;100062.94;5143096;28;20062;-70
2022/04/22 03:12:26;;;;;;;7.13;3.22;;;8.90;99.90;;;8.91;78.55;100068.09;5143727;28;20053;-71
2022/04/22 03:14:58;;;;;;;7.68;3.38;;;8.90;99.90;;;8.89;78.39;100061.09;5144262;28;20053;-70
2022/04/22 03:17:30;;;;;;;8.48;4.20;;;8.90;99.90;;;8.88;79.04;100064.53;5144210;28;20057;-71
2022/04/22 03:20:02;;;;;;;6.05;3.35;;;8.90;99.90;;;8.88;78.77;100067.13;5143981;28;20050;-70
2022/04/22 03:22:36;;;;;;;6.72;4.13;;;8.80;99.90;;;8.87;78.90;100063.66;5143938;28;20137;-70
2022/04/22 03:25:10;;;;;;;8.35;4.13;;;8.80;99.90;;;8.86;78.71;100069.66;5144204;28;20125;-70
2022/04/22 03:27:41;;;;;;;8.48;4.07;;;8.80;99.90;;;8.86;79.25;100059.25;5144112;28;20090;-70
2022/04/22 03:30:14;;;;;;;8.07;4.05;;;8.80;99.90;;;8.84;78.95;100060.94;5144028;28;20487;-69
2022/04/22 03:32:46;;;;;;;8.07;4.05;;;8.80;99.90;;;8.83;78.74;100056.59;5143360;28;20046;-70
2022/04/22 03:35:18;;;;;;;9.75;4.13;;;8.80;99.90;;;8.81;78.58;100060.88;5143723;28;20050;-70
2022/04/22 03:37:50;;;;;;;7.85;4.20;;;8.80;99.90;;;8.78;78.99;100055.56;5143692;28;20053;-70
2022/04/22 03:40:24;;;;;;;9.05;4.00;;;8.70;99.90;;;8.76;78.78;100051.16;5144072;28;20062;-69
2022/04/22 03:42:56;;;;;;;7.80;4.00;;;8.70;99.90;;;8.74;78.78;100048.53;5143786;28;20086;-69
2022/04/22 03:45:28;;;;;;;7.35;4.70;;;8.70;99.90;;;8.70;78.86;100041.47;5143995;28;20464;-69
2022/04/22 03:48:00;;;;;;;8.05;3.95;;;8.70;99.90;;;8.65;78.68;100040.44;5144023;28;20070;-70
2022/04/22 03:50:32;;;;;;;7.03;3.70;;;8.70;99.90;;;8.60;78.38;100042.00;5143880;28;20061;-69
2022/04/22 03:53:04;;;;;;;9.63;4.20;;;8.60;99.90;;;8.53;78.38;100037.47;5172511;23;20050;-88
2022/04/22 03:55:39;;;;;;;9.82;3.97;;;8.60;99.90;;;8.50;78.54;100042.56;5148461;28;20809;-88
2022/04/22 03:58:11;;;;;;;8.20;3.83;;;8.50;99.90;;;8.46;78.62;100041.56;5148706;28;20053;-90
2022/04/22 04:00:44;;;;;;;8.25;4.20;;;8.50;99.90;;;8.45;79.28;100038.94;5148124;28;20054;-89
2022/04/22 04:03:18;;;;;;;7.60;3.58;;;8.40;99.90;;;8.42;78.83;100037.16;5148749;28;20046;-89
2022/04/22 04:08:28;;;;;;;10.10;4.28;;;8.40;99.90;;;8.40;79.43;100036.19;5142478;28;20085;-76
2022/04/22 04:16:41;;;;;;;9.27;3.83;;;8.40;99.90;;;8.38;79.85;100030.97;5144826;28;20062;-76
2022/04/22 04:24:54;;;;;;;9.20;4.05;;;8.40;99.90;;;8.34;79.37;100034.25;5147741;28;20050;-72
2022/04/22 04:27:28;;;;;;;10.25;3.88;;;8.30;99.90;;;8.31;79.77;100034.16;5147907;28;20109;-73
2022/04/22 04:30:01;;;;;;;9.13;3.95;;;8.30;99.90;;;8.29;79.84;100028.06;5132480;28;20070;-73
2022/04/22 04:32:34;;;;;;;10.23;4.80;;;8.30;99.90;;;8.30;80.11;100034.13;5127831;28;20477;-73
2022/04/22 04:35:07;;;;;;;9.30;4.50;;;8.30;99.90;;;8.29;79.73;100028.06;5127995;29;20133;-74
2022/04/22 04:37:41;;;;;;;8.05;4.40;;;8.30;99.90;;;8.29;79.91;100029.78;5127527;29;20062;-74
2022/04/22 04:40:13;;;;;;;8.82;4.10;;;8.30;99.90;;;8.30;79.77;100036.72;5127606;29;20062;-73
2022/04/22 04:42:47;;;;;;;10.55;3.78;;;8.30;99.90;;;8.29;80.47;100029.78;5127979;29;20053;-72
2022/04/22 04:45:19;;;;;;;8.40;4.15;;;8.30;99.90;;;8.30;80.35;100034.13;5127557;29;20066;-73
2022/04/22 04:47:51;;;;;;;8.90;4.30;;;8.30;99.90;;;8.30;80.30;100035.00;5127567;29;20055;-73
2022/04/22 04:50:23;;;;;;;10.15;4.18;;;8.30;99.90;;;8.31;80.41;100035.88;5127445;29;20461;-73
2022/04/22 04:52:55;;;;;;;11.27;4.00;;;8.30;99.90;;;8.30;79.84;100035.00;5141228;28;20054;-74
2022/04/22 04:55:27;;;;;;;8.57;4.18;;;8.30;99.90;;;8.29;80.33;100028.06;5147202;28;20050;-73
2022/04/22 04:58:01;;;;;;;8.93;4.30;;;8.30;99.90;;;8.27;80.41;100019.31;5146857;28;20529;-74
2022/04/22 05:00:33;;;;;;;8.43;4.25;;;8.30;99.90;;;8.29;80.24;100022.84;5147062;28;20046;-75
2022/04/22 05:03:06;;;;;;;8.93;4.57;;;8.30;99.90;;;8.34;80.58;100035.97;5147336;28;20395;-74
2022/04/22 05:05:38;;;;;;;9.35;4.28;;;8.30;99.90;;;8.38;80.14;100032.69;5146944;28;20065;-73
2022/04/22 05:08:10;;;;;;;8.80;4.20;;;8.40;99.90;;;8.48;80.65;100033.88;5146554;28;20047;-72
2022/04/22 05:10:42;;;;;;;11.13;4.60;;;8.40;99.90;;;8.55;80.70;100030.63;5146707;28;20522;-75
2022/04/22 05:13:15;;;;;;;10.00;4.85;;;8.50;99.90;;;8.62;80.71;100029.97;5146844;28;20058;-74
2022/04/22 05:15:50;;;;;;;10.32;4.70;;;8.60;99.90;;;8.70;80.70;100025.88;5146766;28;20105;-74
2022/04/22 05:18:21;;;;;;;10.18;5.00;;;8.60;99.90;;;8.78;80.49;100023.50;5146472;28;20053;-75
2022/04/22 05:20:53;;;;;;;9.40;4.95;;;8.70;99.90;;;8.84;80.57;100024.56;5140242;28;20047;-74
2022/04/22 05:23:26;;;;;;;10.43;4.63;;;8.80;99.90;;;8.91;80.25;100015.22;5126407;29;20058;-74
2022/04/22 05:26:01;;;;;;;9.52;4.97;;;8.80;99.90;;;9.06;80.59;100013.06;5126608;29;20126;-75
2022/04/22 05:28:35;;;;;;;12.13;5.43;;;8.90;99.90;;;9.62;81.18;100007.66;5126432;29;20047;-73
2022/04/22 05:33:56;;;;;;;12.57;4.78;;;9.80;99.90;;;11.77;74.39;100016.72;5125623;28;20548;-73
2022/04/22 05:36:28;;;;;;;9.68;4.63;;;10.70;99.90;;;12.70;69.13;100016.47;5126074;29;20047;-74
2022/04/22 05:39:00;;;;;;;11.48;5.10;;;11.50;99.90;;;13.51;64.38;100009.66;5126034;29;20051;-73
2022/04/22 05:41:32;;;;;;;11.25;4.80;;;12.20;99.90;;;14.23;60.22;100015.56;5125983;29;20138;-74
2022/04/22 05:44:06;;;;;;;13.25;4.90;;;13.00;99.90;;;14.70;57.39;100012.41;5126011;29;20137;-74
2022/04/22 05:46:38;;;;;;;13.05;5.65;;;13.60;98.60;;;14.89;56.31;100014.25;5126189;29;20504;-74
2022/04/22 05:49:10;;;;;;;9.65;4.93;;;13.90;97.00;;;15.11;55.52;100014.31;5125722;29;20212;-75
2022/04/22 05:51:42;;;;;;;13.60;5.13;;;14.30;96.00;;;15.34;54.93;100010.06;5126151;29;20054;-74
2022/04/22 05:54:14;;;;;;;10.75;5.30;;;14.50;95.20;;;15.41;54.16;100009.19;5125952;29;20096;-73
2022/04/22 05:56:46;;;;;;;11.18;4.97;;;14.70;94.00;;;15.59;53.67;100010.13;5125694;29;20507;-74
2022/04/22 05:59:19;;;;;;;10.85;5.43;;;14.80;93.60;;;15.92;53.47;100011.94;5125543;29;20051;-72
2022/04/22 06:01:51;;;;;;;13.00;5.45;;;15.10;93.30;;;16.18;52.27;100014.59;5124828;29;20073;-72
2022/04/22 06:04:23;;;;;;;10.90;5.85;;;15.30;92.30;;;16.46;51.63;100015.41;5124848;29;20048;-72
2022/04/22 06:06:55;;;;;;;11.02;5.10;;;15.60;91.60;;;16.63;50.98;100018.91;5124856;29;20058;-72
2022/04/22 06:12:17;;;;;;;11.15;5.20;;;15.80;90.10;;;17.08;50.11;100022.28;5123518;28;20106;-72
2022/04/22 06:14:50;;;;;;;11.88;5.65;;;16.10;89.60;;;17.52;48.83;100016.81;5134046;28;20105;-72
2022/04/22 06:17:22;;;;;;;13.35;5.97;;;16.50;87.00;;;17.99;47.91;100015.66;5141289;28;20048;-73
2022/04/22 06:19:54;;;;;;;13.85;6.25;;;16.90;84.90;;;18.12;46.87;100011.16;5144090;28;20420;-72
2022/04/22 06:22:27;;;;;;;12.98;5.80;;;17.20;81.80;;;18.32;45.88;100000.41;5143893;28;20484;-73
2022/04/22 06:24:59;;;;;;;13.90;6.30;;;17.40;79.70;;;18.73;44.42;99999.19;5143908;28;20055;-73
2022/04/22 06:27:35;;;;;;;12.35;5.55;;;17.70;76.80;;;18.95;43.99;100000.66;5142204;28;20052;-73
2022/04/22 06:30:11;;;;;;;12.70;5.70;;;18.00;75.40;;;18.94;44.00;99994.53;5143413;28;20053;-74
2022/04/22 06:32:45;;;;;;;13.40;5.72;;;18.00;74.80;;;18.95;44.33;99995.38;5142741;28;20058;-74
2022/04/22 06:35:19;;;;;;;14.05;5.88;;;18.10;75.00;;;19.07;44.34;99994.38;5140614;28;20046;-73
2022/04/22 06:37:53;;;;;;;11.90;5.55;;;18.10;75.10;;;19.25;43.72;99989.72;5122655;28;20062;-72
2022/04/22 06:46:09;;;;;;;11.40;4.80;;;18.80;70.70;;;19.18;42.39;99992.47;5123667;28;20078;-72
2022/04/22 06:48:43;;;;;;;11.32;5.80;;;18.60;69.30;;;18.49;43.51;99985.31;5123638;28;20051;-72
2022/04/22 06:51:17;;;;;;;11.60;5.05;;;18.20;69.60;;;17.82;44.91;99984.16;5140767;28;20050;-73
2022/04/22 06:53:51;;;;;;;13.23;5.63;;;17.70;70.60;;;17.28;46.23;99978.34;5143909;28;20061;-72
2022/04/22 06:56:27;;;;;;;12.93;5.60;;;17.20;72.10;;;16.83;47.92;99979.41;5142326;28;20061;-72
2022/04/22 06:58:59;;;;;;;13.43;5.57;;;16.80;74.40;;;16.79;49.13;99985.56;5143292;28;20047;-73
2022/04/22 07:01:34;;;;;;;10.32;5.30;;;16.60;76.50;;;17.04;48.85;99987.22;5143354;28;20043;-73
2022/04/22 07:04:07;;;;;;;10.82;5.25;;;16.70;77.80;;;17.36;48.40;99980.91;5143143;28;20061;-72
2022/04/22 07:06:41;;;;;;;11.43;5.22;;;16.80;77.90;;;17.83;47.51;99991.16;5137402;28;20055;-73
2022/04/22 07:09:14;;;;;;;10.02;5.05;;;17.10;77.50;;;18.13;46.56;99981.28;5134371;28;20039;-73
2022/04/22 07:11:46;;;;;;;11.70;5.20;;;17.40;76.10;;;18.62;45.74;99981.66;5142209;28;20250;-74
2022/04/22 07:14:20;;;;;;;9.05;5.18;;;17.80;75.30;;;19.01;44.50;99979.47;5144147;28;20050;-70
2022/04/22 07:16:54;;;;;;;11.85;5.18;;;18.10;73.00;;;19.25;44.03;99963.31;5125844;28;21080;-71
2022/04/22 07:19:27;;;;;;;10.55;5.15;;;18.40;72.50;;;19.48;43.26;99972.66;5123648;28;20054;-70
2022/04/22 07:22:00;;;;;;;11.70;5.82;;;18.70;71.20;;;19.63;42.78;99967.22;5124010;28;20047;-71
2022/04/22 07:24:32;;;;;;;10.07;4.70;;;18.90;69.80;;;19.65;42.13;99960.13;5124043;29;20053;-71
2022/04/22 07:27:06;;;;;;;9.85;4.70;;;19.10;68.40;;;19.74;42.27;99967.88;5123980;29;20051;-70
2022/04/22 07:29:39;;;;;;;11.57;5.70;;;19.20;68.00;;;19.86;41.84;99971.25;5124035;29;20044;-72
2022/04/22 07:32:15;;;;;;;12.55;5.85;;;19.40;67.20;;;20.15;41.50;99973.38;5123370;28;20055;-68
2022/04/22 07:34:48;;;;;;;11.27;5.28;;;19.60;67.10;;;20.15;41.26;99968.09;5124280;29;20058;-69
2022/04/22 07:37:21;;;;;;;11.23;5.80;;;19.70;66.20;;;20.24;41.19;99971.47;5123956;29;20055;-69
2022/04/22 07:39:54;;;;;;;11.40;4.93;;;19.80;66.00;;;20.39;40.93;99977.38;5124435;28;20051;-69
2022/04/22 07:42:27;;;;;;;11.35;5.00;;;19.80;65.50;;;20.39;40.23;99966.78;5124216;29;20051;-70
2022/04/22 07:47:51;;;;;;;10.93;4.82;;;19.80;64.50;;;20.23;41.26;99966.22;5130455;28;20086;-70
2022/04/22 07:50:25;;;;;;;9.57;4.88;;;19.80;65.20;;;20.62;40.37;99969.94;5140826;28;20058;-70
2022/04/22 07:52:57;;;;;;;10.18;4.85;;;20.00;64.50;;;21.12;39.75;99949.47;5128738;28;20051;-72
2022/04/22 07:55:29;;;;;;;10.30;4.55;;;20.30;64.40;;;21.39;38.85;99964.81;5123828;28;20047;-72
2022/04/22 07:58:01;;;;;;;9.07;4.40;;;20.50;63.30;;;21.68;37.95;99960.59;5128116;29;20051;-74
2022/04/22 08:00:33;;;;;;;9.48;4.85;;;20.80;62.20;;;21.92;36.98;99965.31;5141111;28;20050;-70
2022/04/22 08:03:06;;;;;;;9.27;4.63;;;21.00;61.40;;;21.63;36.52;99957.19;5126580;29;20053;-70
2022/04/22 08:05:38;;;;;;;8.27;4.15;;;21.00;59.60;;;20.89;38.21;99967.63;5127803;29;20497;-71
2022/04/22 08:08:11;;;;;;;9.00;4.15;;;20.50;60.60;;;20.24;39.52;99974.13;5127278;28;20066;-71
2022/04/22 08:10:44;;;;;;;8.75;4.35;;;20.10;61.40;;;19.84;40.70;99963.34;5144839;28;20047;-71
2022/04/22 08:13:16;;;;;;;10.63;4.97;;;19.70;62.80;;;19.60;40.96;99964.59;5143364;28;20070;-75
2022/04/22 08:15:48;;;;;;;9.80;5.43;;;19.40;63.20;;;18.93;42.19;99954.94;5127196;28;20057;-75
2022/04/22 08:18:22;;;;;;;9.43;4.97;;;18.90;64.10;;;19.24;42.59;99950.13;5126130;28;20057;-71
2022/04/22 08:20:54;;;;;;;9.10;3.97;;;18.80;65.30;;;20.47;39.84;99954.31;5139550;28;20061;-72
2022/04/22 08:23:26;;;;;;;9.50;4.65;;;19.20;64.60;;;20.81;38.10;99963.38;5146951;28;20050;-71
2022/04/22 08:25:58;;;;;;;8.48;4.72;;;19.40;62.70;;;20.29;38.32;99961.69;5147242;28;20047;-71
2022/04/22 08:28:30;;;;;;;8.88;4.75;;;19.30;61.70;;;20.64;38.92;99965.47;5147176;28;20150;-71
2022/04/22 08:31:02;;;;;;;9.32;4.88;;;19.40;63.10;;;21.85;36.52;99960.22;5146924;28;20047;-70
2022/04/22 08:33:35;;;;;;;8.35;4.28;;;19.80;61.90;;;23.19;34.86;99953.03;5137612;28;20397;-72
2022/04/22 08:36:08;;;;;;;6.93;3.83;;;20.50;61.20;;;23.64;33.16;99955.22;5106012;28;20057;-73
2022/04/22 08:38:40;;;;;;;7.38;4.30;;;21.00;58.90;;;24.33;32.79;99956.47;5096444;29;20139;-73
2022/04/22 08:41:12;;;;;;;7.88;4.40;;;21.50;58.60;;;23.99;32.46;99967.38;5091356;29;20429;-73
2022/04/22 08:43:44;;;;;;;7.57;3.78;;;21.60;57.50;;;23.36;33.25;99956.06;5106634;29;20055;-72
2022/04/22 08:51:56;;;;;;;7.78;4.10;;;20.50;57.50;;;20.19;37.08;99965.38;5091590;29;20332;-73
2022/04/22 08:54:28;;;;;;;9.25;3.50;;;19.90;58.20;;;19.67;38.22;99950.38;5085123;29;20056;-72
2022/04/22 08:57:01;;;;;;;5.63;3.28;;;19.40;59.30;;;19.35;39.22;99952.59;5086795;29;20067;-73
2022/04/22 08:59:32;;;;;;;8.77;4.25;;;19.10;60.40;;;19.04;39.46;99953.03;5089805;29;20047;-72
2022/04/22 09:02:04;;;;;;;8.57;3.92;;;18.80;60.60;;;18.72;40.01;99949.91;5097251;29;20067;-73
2022/04/22 09:04:38;;;;;;;6.50;3.13;;;18.50;61.10;;;18.52;40.66;99937.78;5089861;29;20047;-70
2022/04/22 09:07:12;;;;;;;6.68;3.58;;;18.30;61.90;;;18.38;40.86;99939.69;5097560;29;20235;-72
2022/04/22 09:09:49;;;;;;;6.60;3.40;;;18.20;62.10;;;18.34;40.70;99927.44;5103398;29;20044;-71
2022/04/22 09:12:23;;;;;;;6.90;3.58;;;18.10;61.90;;;18.32;40.84;99934.47;5095556;29;20140;-72
2022/04/22 09:14:57;;;;;;;6.72;3.28;;;18.00;62.20;;;18.66;40.61;99941.19;5094217;29;20058;-72
2022/04/22 09:17:32;;;;;;;7.80;3.95;;;18.20;62.50;;;19.16;40.07;99937.00;5098032;29;20417;-72
2022/04/22 09:20:07;;;;;;;7.32;4.05;;;18.50;62.70;;;19.34;38.64;99942.94;5086510;29;20056;-72
2022/04/22 09:22:39;;;;;;;8.23;4.00;;;18.70;60.50;;;19.73;38.18;99936.19;5086030;29;20056;-68
2022/04/22 09:25:12;;;;;;;7.80;4.05;;;19.00;60.00;;;19.39;38.24;99933.16;5094336;29;20512;-71
2022/04/22 09:27:44;;;;;;;7.75;3.80;;;19.00;59.50;;;18.78;39.13;99924.31;5084835;29;20048;-66
2022/04/22 09:30:17;;;;;;;9.32;4.00;;;18.70;59.60;;;18.31;40.25;99919.53;5094952;29;20062;-71
2022/04/22 09:32:48;;;;;;;8.90;3.90;;;18.40;60.90;;;18.04;40.44;99921.56;5090192;29;20140;-74
2022/04/22 09:35:23;;;;;;;7.60;3.97;;;18.10;60.80;;;17.73;40.83;99931.50;5093739;29;20043;-74
2022/04/22 09:43:42;;;;;;;8.02;4.05;;;17.40;62.60;;;17.62;41.77;99915.75;5101764;29;20114;-74
2022/04/22 09:46:24;;;;;;;10.40;4.05;;;17.40;63.20;;;17.73;42.14;99907.78;5103853;29;20056;-75
2022/04/22 09:48:56;;;;;;;8.40;4.55;;;17.50;63.50;;;18.28;41.36;99901.13;5093316;29;20142;-72
2022/04/22 09:54:06;;;;;;;8.73;4.60;;;18.10;63.10;;;18.90;40.87;99907.44;5154026;28;20423;-67
2022/04/22 09:56:39;;;;;;;18.65;6.53;;;18.40;63.00;;;19.33;39.86;99902.44;5145353;28;20050;-68
2022/04/22 09:59:23;;;;;;;9.25;4.25;;;18.70;61.90;;;19.32;39.59;99905.97;5145271;28;20051;-68
2022/04/22 10:01:55;;;;;;;9.55;4.47;;;18.90;61.10;;;19.18;39.10;99907.94;5144867;28;20065;-66
2022/04/22 10:04:28;;;;;;;7.45;3.85;;;18.90;60.30;;;18.83;39.80;99903.13;5145304;28;20130;-67
2022/04/22 10:07:02;;;;;;;10.23;4.53;;;18.70;60.30;;;18.80;39.23;99903.19;5145368;28;20047;-68
2022/04/22 10:09:37;;;;;;;8.82;4.45;;;18.70;60.30;;;18.73;40.05;99893.59;5157639;28;20046;-67
2022/04/22 10:12:11;;;;;;;;;;;18.60;61.00;;;18.66;40.22;99887.47;5157986;28;20519;-68
2022/04/22 10:14:44;;;;;;;8.10;4.80;;;18.50;61.10;;;18.61;40.65;99882.25;5165707;28;20441;-67
2022/04/22 10:17:19;;;;;;;8.95;4.60;;;18.40;61.60;;;18.61;40.61;99882.25;5157367;28;20050;-67
2022/04/22 10:19:53;;;;;;;9.35;4.45;;;18.40;61.60;;;18.82;40.58;99883.78;5149126;28;20047;-67
2022/04/22 10:22:31;;;;;;;8.00;4.15;;;18.50;61.90;;;19.14;39.84;99882.47;5148109;28;20518;-67
2022/04/22 10:25:07;;;;;;;8.73;4.60;;;18.70;61.40;;;19.09;39.27;99877.22;5144003;28;20058;-67
2022/04/22 10:27:39;;;;;;;112.03;31.50;;;18.70;60.50;;;19.55;39.74;99879.16;5144843;28;20559;-68
2022/04/22 10:30:13;;;;;;;31.98;11.45;;;19.00;61.50;;;19.83;39.12;99876.13;5144299;28;20051;-67
2022/04/22 10:32:49;;;;;;;71.20;18.63;;;19.20;60.80;;;20.17;39.07;99866.66;5144049;28;20056;-67
2022/04/22 10:35:23;;;;;;;17.73;6.57;;;19.50;61.30;;;20.54;38.56;99871.25;5144698;28;20097;-68
2022/04/22 10:37:55;;;;;;;12.18;5.68;;;19.70;60.60;;;20.69;36.63;99860.34;5145172;28;20500;-68
2022/04/22 10:40:29;;;;;;;26.42;8.68;;;20.00;58.10;;;20.82;36.62;99855.66;5144970;28;20141;-67
2022/04/22 10:43:02;;;;;;;18.40;7.25;;;20.20;58.20;;;20.61;36.11;99846.41;5144053;28;20137;-67
2022/04/22 10:48:27;;;;;;;10.45;4.68;;;20.20;56.30;;;20.47;35.91;99833.44;5146266;28;20566;-68
2022/04/22 10:51:02;;;;;;;10.07;5.45;;;20.10;56.50;;;20.29;35.77;99826.72;5149226;28;20090;-68
2022/04/22 10:53:46;;;;;;;9.18;4.78;;;20.00;56.10;;;20.28;36.07;99822.34;5143886;28;20142;-70
2022/04/22 10:56:35;;;;;;;8.23;4.25;;;19.90;56.40;;;20.45;36.34;99829.09;5146018;28;20062;-70
2022/04/22 10:59:32;;;;;;;9.30;5.03;;;20.00;57.10;;;20.74;36.12;99821.41;5144385;28;20049;-71
2022/04/22 11:02:29;;;;;;;10.18;4.53;;;20.20;57.20;;;20.89;36.39;99824.59;5144268;28;20051;-72
2022/04/22 11:05:39;;;;;;;8.23;5.00;;;20.30;57.50;;;20.71;35.87;99820.59;5144474;28;20411;-69
2022/04/22 11:08:26;;;;;;;9.48;4.75;;;20.40;56.50;;;20.34;36.16;99821.31;5144438;28;20534;-71
2022/04/22 11:11:06;;;;;;;;;;;20.10;56.20;;;20.03;36.79;99821.94;5144538;28;20058;-68
2022/04/22 11:13:48;;;;;;;;;;;19.90;56.70;;;19.91;37.11;99816.03;5144489;28;20392;-68
2022/04/22 11:16:29;;;;;;;6.82;3.63;;;19.70;56.90;;;19.89;37.22;99812.53;5144844;28;19980;-69
2022/04/22 11:19:34;;;;;;;8.63;4.38;;;19.60;57.50;;;19.52;37.20;99802.59;5144318;28;20572;-69
2022/04/22 11:22:07;;;;;;;9.30;4.60;;;19.40;56.90;;;19.38;38.00;99810.75;5143430;28;20082;-68
2022/04/22 11:24:41;;;;;;;7.78;4.75;;;19.20;58.00;;;19.26;38.08;99810.94;5144172;28;20137;-68
2022/04/22 11:27:14;;;;;;;9.15;5.10;;;19.10;57.90;;;19.10;37.97;99807.66;5144819;28;20385;-67
2022/04/22 11:29:47;;;;;;;8.68;4.72;;;19.00;57.70;;;19.05;38.45;99806.88;5163713;28;20046;-67
2022/04/22 11:32:21;;;;;;;9.35;4.93;;;18.90;58.30;;;19.33;38.38;99807.31;5162276;28;20389;-68
2022/04/22 11:35:14;;;;;;;8.80;5.07;;;19.00;58.60;;;19.43;37.29;99797.44;5148944;28;20436;-68
2022/04/22 11:37:56;;;;;;;9.52;5.40;;;19.10;57.60;;;19.45;37.39;99795.66;5148750;28;20419;-68
2022/04/22 11:40:29;;;;;;;9.77;4.75;;;19.10;57.60;;;19.37;37.26;99800.22;5148219;28;20087;-68
2022/04/22 11:43:07;;;;;;;7.10;3.63;;;19.10;57.30;;;19.45;37.83;99793.03;5147741;28;20053;-69